Osmond, Nebraska
Current Conditions -  °F | °C
As of 2:56 PM on Thursday 23 Oct 2014 (Local Time) from KOFK Reporting Station
Clear Clear  
Wind Chill: 70°   Ceiling: Unl
Heat Index: 70°   Visibility: 10mi
Dew Point: 45°   Wind: 14mph
Humidity: 41%   Direction: 180°S
Pressure: 30"   Gusts: NA
Location:  42.36°N, 97.6°W
Report Text: KOFK 231956Z AUTO 18012KT 10SM CLR 21/07 A3000 RMK AO2 SLP156 T02110072
Loading
Personal Weather Stations






























Interactive Weather Map
Tropical Storm Tracking
New forecast layout! Learn more

10-Day Weather Forecast

Advertisements
Track Severe Weather on mobile